createdAt,value
2019-04-13T00:00:04.487Z,1020.20
2019-04-13T00:01:57.381Z,1020.22
2019-04-13T00:02:57.388Z,1020.23
2019-04-13T00:04:50.291Z,1020.21
2019-04-13T00:05:50.297Z,1020.23
2019-04-13T00:07:43.192Z,1020.18
2019-04-13T00:08:43.199Z,1020.19
2019-04-13T00:10:36.083Z,1020.14
2019-04-13T00:11:36.091Z,1020.17
2019-04-13T00:13:28.991Z,1020.13
2019-04-13T00:14:28.991Z,1020.10
2019-04-13T00:16:21.883Z,1020.07
2019-04-13T00:17:21.888Z,1020.05
2019-04-13T00:19:14.788Z,1020.05
2019-04-13T00:20:14.791Z,1020.02
2019-04-13T00:22:07.684Z,1020.07
2019-04-13T00:23:07.693Z,1020.05
2019-04-13T00:25:00.590Z,1019.99
2019-04-13T00:26:00.589Z,1019.97
2019-04-13T00:27:53.491Z,1020.02
2019-04-13T00:28:53.493Z,1020.00
2019-04-13T00:30:46.390Z,1020.02
2019-04-13T00:31:46.389Z,1020.03
2019-04-13T00:33:39.292Z,1020.01
2019-04-13T00:34:41.638Z,1019.99
2019-04-13T00:36:32.179Z,1019.92
2019-04-13T00:37:32.187Z,1019.94
2019-04-13T00:39:25.084Z,1019.88
2019-04-13T00:40:25.084Z,1019.86
2019-04-13T00:42:17.980Z,1019.88
2019-04-13T00:43:17.985Z,1019.86
2019-04-13T00:45:10.885Z,1019.89
2019-04-13T00:46:10.946Z,1019.88
2019-04-13T00:48:03.783Z,1019.86
2019-04-13T00:49:03.785Z,1019.84
2019-04-13T00:50:56.675Z,1019.79
2019-04-13T00:51:56.682Z,1019.78
2019-04-13T00:53:49.582Z,1019.76
2019-04-13T00:54:49.581Z,1019.76
2019-04-13T00:56:42.473Z,1019.76
2019-04-13T00:57:42.479Z,1019.77
2019-04-13T00:59:35.377Z,1019.71
2019-04-13T01:00:35.377Z,1019.81
2019-04-13T01:02:28.271Z,1019.77
2019-04-13T01:03:28.276Z,1019.75
2019-04-13T01:05:21.179Z,1019.73
2019-04-13T01:06:21.175Z,1019.77
2019-04-13T01:08:14.074Z,1019.75
2019-04-13T01:09:14.074Z,1019.74
2019-04-13T01:11:06.967Z,1019.75
2019-04-13T01:12:06.970Z,1019.74
2019-04-13T01:13:59.871Z,1019.73
2019-04-13T01:14:59.868Z,1019.76
2019-04-13T01:16:52.763Z,1019.72
2019-04-13T01:17:52.771Z,1019.73
2019-04-13T01:19:45.672Z,1019.70
2019-04-13T01:20:45.670Z,1019.72
2019-04-13T01:22:38.563Z,1019.72
2019-04-13T01:23:38.568Z,1019.71
2019-04-13T01:25:31.470Z,1019.68
2019-04-13T01:26:31.467Z,1019.67
2019-04-13T01:28:24.367Z,1019.66
2019-04-13T01:29:24.366Z,1019.64
2019-04-13T01:31:17.263Z,1019.62
2019-04-13T01:32:17.267Z,1019.61
2019-04-13T01:34:10.165Z,1019.61
2019-04-13T01:35:10.162Z,1019.61
2019-04-13T01:37:03.056Z,1019.58
2019-04-13T01:38:03.062Z,1019.58
2019-04-13T01:39:55.964Z,1019.58
2019-04-13T01:40:55.961Z,1019.62
2019-04-13T01:42:48.858Z,1019.60
2019-04-13T01:43:48.863Z,1019.54
2019-04-13T01:45:41.762Z,1019.55
2019-04-13T01:46:41.760Z,1019.52
2019-04-13T01:48:34.659Z,1019.53
2019-04-13T01:49:34.657Z,1019.52
2019-04-13T01:51:27.548Z,1019.53
2019-04-13T01:52:27.554Z,1019.51
2019-04-13T01:54:20.453Z,1019.48
2019-04-13T01:55:20.450Z,1019.48
2019-04-13T01:57:13.346Z,1019.47
2019-04-13T01:58:13.351Z,1019.46
2019-04-13T02:00:06.742Z,1019.47
2019-04-13T02:01:06.742Z,1019.43
2019-04-13T02:02:59.637Z,1019.48
2019-04-13T02:03:59.641Z,1019.48
2019-04-13T02:05:52.541Z,1019.45
2019-04-13T02:06:52.538Z,1019.50
2019-04-13T02:08:45.438Z,1019.49
2019-04-13T02:09:45.437Z,1019.46
2019-04-13T02:11:38.330Z,1019.47
2019-04-13T02:12:38.336Z,1019.45
2019-04-13T02:14:31.235Z,1019.47
2019-04-13T02:15:31.235Z,1019.42
2019-04-13T02:17:24.128Z,1019.41
2019-04-13T02:18:24.134Z,1019.41
2019-04-13T02:20:17.035Z,1019.40
2019-04-13T02:21:17.034Z,1019.41
2019-04-13T02:23:09.930Z,1019.39
2019-04-13T02:24:09.931Z,1019.37
2019-04-13T02:26:02.833Z,1019.37
2019-04-13T02:27:02.830Z,1019.34
2019-04-13T02:28:55.726Z,1019.36
2019-04-13T02:29:55.727Z,1019.38
2019-04-13T02:31:48.623Z,1019.39
2019-04-13T02:32:48.622Z,1019.39
2019-04-13T02:34:41.524Z,1019.38
2019-04-13T02:35:41.520Z,1019.38
2019-04-13T02:37:34.413Z,1019.34
2019-04-13T02:38:34.416Z,1019.38
2019-04-13T02:40:27.314Z,1019.36
2019-04-13T02:41:27.334Z,1019.35
2019-04-13T02:43:20.207Z,1019.36
2019-04-13T02:44:20.213Z,1019.41
2019-04-13T02:46:13.110Z,1019.37
2019-04-13T02:47:13.110Z,1019.35
2019-04-13T02:49:06.012Z,1019.38
2019-04-13T02:50:06.009Z,1019.36
2019-04-13T02:51:58.902Z,1019.40
2019-04-13T02:52:58.919Z,1019.35
2019-04-13T02:54:51.804Z,1019.37
2019-04-13T02:55:51.803Z,1019.41
2019-04-13T02:57:44.697Z,1019.42
2019-04-13T02:58:44.702Z,1019.37
2019-04-13T03:00:37.600Z,1019.44
2019-04-13T03:01:37.598Z,1019.45
2019-04-13T03:03:30.493Z,1019.37
2019-04-13T03:04:30.494Z,1019.42
2019-04-13T03:06:23.394Z,1019.42
2019-04-13T03:07:23.391Z,1019.39
2019-04-13T03:09:16.292Z,1019.40
2019-04-13T03:10:16.290Z,1019.37
2019-04-13T03:12:09.185Z,1019.37
2019-04-13T03:13:09.189Z,1019.36
2019-04-13T03:15:02.085Z,1019.32
2019-04-13T03:16:02.084Z,1019.36
2019-04-13T03:17:54.976Z,1019.35
2019-04-13T03:18:54.981Z,1019.35
2019-04-13T03:20:47.878Z,1019.35
2019-04-13T03:21:47.878Z,1019.34
2019-04-13T03:23:40.768Z,1019.35
2019-04-13T03:24:40.772Z,1019.35
2019-04-13T03:26:33.675Z,1019.34
2019-04-13T03:27:33.668Z,1019.32
2019-04-13T03:29:26.583Z,1019.32
2019-04-13T03:30:26.575Z,1019.30
2019-04-13T03:32:19.462Z,1019.33
2019-04-13T03:33:19.468Z,1019.35
2019-04-13T03:35:12.371Z,1019.34
2019-04-13T03:36:12.361Z,1019.35
2019-04-13T03:38:05.257Z,1019.37
2019-04-13T03:39:05.258Z,1019.36
2019-04-13T03:40:58.159Z,1019.35
2019-04-13T03:41:58.155Z,1019.35
2019-04-13T03:43:51.074Z,1019.32
2019-04-13T03:44:51.074Z,1019.34
2019-04-13T03:46:43.969Z,1019.34
2019-04-13T03:47:43.968Z,1019.33
2019-04-13T03:49:36.868Z,1019.30
2019-04-13T03:50:36.867Z,1019.30
2019-04-13T03:52:29.781Z,1019.30
2019-04-13T03:53:29.763Z,1019.28
2019-04-13T03:55:22.661Z,1019.34
2019-04-13T03:56:22.661Z,1019.31
2019-04-13T03:58:15.555Z,1019.35
2019-04-13T03:59:15.558Z,1019.37
2019-04-13T04:01:08.461Z,1019.37
2019-04-13T04:02:08.458Z,1019.35
2019-04-13T04:04:01.354Z,1019.35
2019-04-13T04:05:01.358Z,1019.35
2019-04-13T04:06:54.263Z,1019.35
2019-04-13T04:07:54.257Z,1019.31
2019-04-13T04:09:47.156Z,1019.35
2019-04-13T04:10:47.154Z,1019.32
2019-04-13T04:12:40.047Z,1019.27
2019-04-13T04:13:40.053Z,1019.28
2019-04-13T04:15:32.951Z,1019.28
2019-04-13T04:16:32.952Z,1019.28
2019-04-13T04:18:25.844Z,1019.25
2019-04-13T04:19:25.853Z,1019.25
2019-04-13T04:21:18.750Z,1019.26
2019-04-13T04:22:18.750Z,1019.29
2019-04-13T04:24:11.640Z,1019.25
2019-04-13T04:25:11.644Z,1019.26
2019-04-13T04:27:04.543Z,1019.27
2019-04-13T04:28:04.545Z,1019.27
2019-04-13T04:29:57.447Z,1019.30
2019-04-13T04:30:57.440Z,1019.29
2019-04-13T04:32:50.336Z,1019.31
2019-04-13T04:33:50.341Z,1019.32
2019-04-13T04:35:43.238Z,1019.30
2019-04-13T04:36:43.236Z,1019.31
2019-04-13T04:38:36.128Z,1019.36
2019-04-13T04:39:36.133Z,1019.40
2019-04-13T04:41:29.031Z,1019.33
2019-04-13T04:42:29.031Z,1019.36
2019-04-13T04:44:21.926Z,1019.38
2019-04-13T04:45:21.926Z,1019.34
2019-04-13T04:47:14.825Z,1019.35
2019-04-13T04:48:14.825Z,1019.39
2019-04-13T04:50:07.723Z,1019.37
2019-04-13T04:51:11.244Z,1019.41
2019-04-13T04:53:00.617Z,1019.38
2019-04-13T04:54:00.619Z,1019.39
2019-04-13T04:55:53.520Z,1019.41
2019-04-13T04:56:53.520Z,1019.37
2019-04-13T04:58:46.410Z,1019.42
2019-04-13T04:59:46.423Z,1019.40
2019-04-13T05:01:39.316Z,1019.45
2019-04-13T05:02:39.316Z,1019.43
2019-04-13T05:04:32.210Z,1019.42
2019-04-13T05:05:32.214Z,1019.43
2019-04-13T05:07:25.116Z,1019.43
2019-04-13T05:08:25.118Z,1019.47
2019-04-13T05:10:18.016Z,1019.43
2019-04-13T05:11:18.015Z,1019.45
2019-04-13T05:13:10.908Z,1019.46
2019-04-13T05:14:10.913Z,1019.50
2019-04-13T05:16:03.812Z,1019.43
2019-04-13T05:17:03.811Z,1019.50
2019-04-13T05:18:56.710Z,1019.49
2019-04-13T05:19:56.711Z,1019.49
2019-04-13T05:21:50.108Z,1019.46
2019-04-13T05:22:50.107Z,1019.45
2019-04-13T05:24:42.999Z,1019.48
2019-04-13T05:25:43.005Z,1019.53
2019-04-13T05:27:35.905Z,1019.53
2019-04-13T05:28:35.906Z,1019.51
2019-04-13T05:30:28.806Z,1019.52
2019-04-13T05:31:28.805Z,1019.49
2019-04-13T05:33:21.698Z,1019.48
2019-04-13T05:34:21.704Z,1019.49
2019-04-13T05:36:14.602Z,1019.60
2019-04-13T05:37:14.601Z,1019.53
2019-04-13T05:39:07.494Z,1019.53
2019-04-13T05:40:07.501Z,1019.57
2019-04-13T05:42:00.400Z,1019.53
2019-04-13T05:43:00.446Z,1019.55
2019-04-13T05:44:53.293Z,1019.59
2019-04-13T05:45:53.298Z,1019.57
2019-04-13T05:47:46.200Z,1019.60
2019-04-13T05:48:46.197Z,1019.61
2019-04-13T05:50:39.099Z,1019.62
2019-04-13T05:51:39.099Z,1019.60
2019-04-13T05:53:31.988Z,1019.63
2019-04-13T05:54:31.994Z,1019.64
2019-04-13T05:56:24.907Z,1019.65
2019-04-13T05:57:24.907Z,1019.67
2019-04-13T05:59:17.803Z,1019.67
2019-04-13T06:00:17.805Z,1019.66
2019-04-13T06:02:10.756Z,1019.70
2019-04-13T06:03:10.708Z,1019.73
2019-04-13T06:05:03.641Z,1019.69
2019-04-13T06:06:03.607Z,1019.71
2019-04-13T06:07:56.999Z,1019.67
2019-04-13T06:08:57.001Z,1019.71
2019-04-13T06:10:50.101Z,1019.71
2019-04-13T06:11:49.898Z,1019.73
2019-04-13T06:13:42.840Z,1019.72
2019-04-13T06:14:42.797Z,1019.69
2019-04-13T06:16:37.527Z,1019.82
2019-04-13T06:17:35.694Z,1019.72
2019-04-13T06:19:28.589Z,1019.77
2019-04-13T06:20:28.596Z,1019.72
2019-04-13T06:22:21.493Z,1019.78
2019-04-13T06:23:21.495Z,1019.81
2019-04-13T06:25:14.386Z,1019.81
2019-04-13T06:26:14.391Z,1019.82
2019-04-13T06:28:07.294Z,1019.87
2019-04-13T06:29:07.292Z,1019.89
2019-04-13T06:31:00.834Z,1019.83
2019-04-13T06:32:00.193Z,1019.82
2019-04-13T06:33:53.086Z,1019.85
2019-04-13T06:34:53.091Z,1019.83
2019-04-13T06:36:45.994Z,1019.80
2019-04-13T06:37:48.311Z,1019.91
2019-04-13T06:39:38.887Z,1019.80
2019-04-13T06:40:40.878Z,1019.78
2019-04-13T06:42:31.793Z,1019.78
2019-04-13T06:43:31.795Z,1019.77
2019-04-13T06:45:24.692Z,1019.81
2019-04-13T06:46:24.694Z,1019.84
2019-04-13T06:48:17.602Z,1019.80
2019-04-13T06:49:19.718Z,1019.75
2019-04-13T06:51:10.487Z,1019.77
2019-04-13T06:52:10.497Z,1019.73
2019-04-13T06:54:03.391Z,1019.70
2019-04-13T06:55:03.391Z,1019.76
2019-04-13T06:56:56.291Z,1019.71
2019-04-13T06:57:56.296Z,1019.76
2019-04-13T06:59:49.677Z,1019.72
2019-04-13T07:00:49.688Z,1019.78
2019-04-13T07:02:42.655Z,1019.81
2019-04-13T07:03:42.585Z,1019.78
2019-04-13T07:05:35.475Z,1019.79
2019-04-13T07:06:46.963Z,1019.79
2019-04-13T07:08:37.881Z,1019.79
2019-04-13T07:09:39.818Z,1019.80
2019-04-13T07:11:21.504Z,1019.77
2019-04-13T07:12:21.293Z,1019.82
2019-04-13T07:14:14.384Z,1019.83
2019-04-13T07:15:14.280Z,1019.79
2019-04-13T07:17:07.181Z,1019.79
2019-04-13T07:18:07.210Z,1019.75
2019-04-13T07:20:00.076Z,1019.74
2019-04-13T07:21:00.092Z,1019.83
2019-04-13T07:22:54.143Z,1019.78
2019-04-13T07:23:52.994Z,1019.77
2019-04-13T07:25:45.877Z,1019.83
2019-04-13T07:26:45.886Z,1019.80
2019-04-13T07:28:38.871Z,1019.80
2019-04-13T07:29:38.868Z,1019.78
2019-04-13T07:31:32.007Z,1019.82
2019-04-13T07:32:32.017Z,1019.86
2019-04-13T07:34:24.693Z,1019.77
2019-04-13T07:35:24.682Z,1019.78
2019-04-13T07:37:17.584Z,1019.79
2019-04-13T07:38:17.587Z,1019.85
2019-04-13T07:40:10.482Z,1019.92
2019-04-13T07:41:10.490Z,1019.87
2019-04-13T07:43:03.391Z,1019.90
2019-04-13T07:44:03.393Z,1019.81
2019-04-13T07:45:56.788Z,1019.87
2019-04-13T07:46:56.790Z,1019.83
2019-04-13T07:48:49.711Z,1019.85
2019-04-13T07:49:49.696Z,1019.90
2019-04-13T07:51:42.588Z,1019.90
2019-04-13T07:52:42.597Z,1019.85
2019-04-13T07:54:35.495Z,1019.81
2019-04-13T07:55:36.443Z,1019.86
2019-04-13T07:57:28.401Z,1019.88
2019-04-13T07:58:28.400Z,1019.81
2019-04-13T08:00:21.305Z,1019.83
2019-04-13T08:01:23.449Z,1019.86
2019-04-13T08:03:14.212Z,1019.88
2019-04-13T08:04:14.211Z,1019.87
2019-04-13T08:06:07.106Z,1019.88
2019-04-13T08:07:07.113Z,1019.90
2019-04-13T08:09:00.014Z,1019.81
2019-04-13T08:10:00.019Z,1019.81
2019-04-13T08:11:52.916Z,1019.83
2019-04-13T08:12:52.921Z,1019.80
2019-04-13T08:14:45.824Z,1019.76
2019-04-13T08:15:45.825Z,1019.71
2019-04-13T08:17:38.733Z,1019.84
2019-04-13T08:18:41.217Z,1019.77
2019-04-13T08:20:34.120Z,1019.75
2019-04-13T08:21:33.340Z,1019.76
2019-04-13T08:23:26.929Z,1019.82
2019-04-13T08:24:24.545Z,1019.80
2019-04-13T08:26:17.447Z,1019.83
2019-04-13T08:27:17.455Z,1019.80
2019-04-13T08:29:10.359Z,1019.78
2019-04-13T08:30:10.362Z,1019.82
2019-04-13T08:32:03.269Z,1019.79
2019-04-13T08:33:03.271Z,1019.79
2019-04-13T08:34:57.527Z,1019.73
2019-04-13T08:35:58.224Z,1019.77
2019-04-13T08:37:55.263Z,1019.70
2019-04-13T08:38:58.561Z,1019.70
2019-04-13T08:40:46.234Z,1019.77
2019-04-13T08:41:41.992Z,1019.73
2019-04-13T08:43:34.913Z,1019.70
2019-04-13T08:44:36.722Z,1019.66
2019-04-13T08:46:28.293Z,1019.65
2019-04-13T08:47:27.813Z,1019.62
2019-04-13T08:49:20.721Z,1019.70
2019-04-13T08:50:20.715Z,1019.56
2019-04-13T08:52:13.612Z,1019.60
2019-04-13T08:53:13.623Z,1019.55
2019-04-13T08:55:06.525Z,1019.56
2019-04-13T08:56:06.528Z,1019.51
2019-04-13T08:57:59.489Z,1019.64
2019-04-13T08:58:59.978Z,1019.59
2019-04-13T09:00:52.391Z,1019.57
2019-04-13T09:01:52.401Z,1019.61
2019-04-13T09:03:45.307Z,1019.60
2019-04-13T09:04:45.310Z,1019.66
2019-04-13T09:06:38.209Z,1019.58
2019-04-13T09:07:39.224Z,1019.63
2019-04-13T09:09:35.476Z,1019.58
2019-04-13T09:10:31.756Z,1019.60
2019-04-13T09:12:24.678Z,1019.64
2019-04-13T09:13:25.078Z,1019.52
2019-04-13T09:15:17.017Z,1019.57
2019-04-13T09:16:16.939Z,1019.55
2019-04-13T09:18:09.850Z,1019.58
2019-04-13T09:19:12.432Z,1019.66
2019-04-13T09:21:05.819Z,1019.59
2019-04-13T09:22:02.759Z,1019.57
2019-04-13T09:23:55.660Z,1019.57
2019-04-13T09:24:55.663Z,1019.55
2019-04-13T09:26:48.560Z,1019.58
2019-04-13T09:27:48.568Z,1019.56
2019-04-13T09:29:41.488Z,1019.60
2019-04-13T09:30:41.479Z,1019.54
2019-04-13T09:32:34.380Z,1019.61
2019-04-13T09:33:35.420Z,1019.61
2019-04-13T09:35:27.296Z,1019.62
2019-04-13T09:36:28.948Z,1019.57
2019-04-13T09:38:20.202Z,1019.51
2019-04-13T09:39:21.850Z,1019.49
2019-04-13T09:41:13.110Z,1019.48
2019-04-13T09:42:13.118Z,1019.47
2019-04-13T09:44:06.035Z,1019.47
2019-04-13T09:45:06.043Z,1019.45
2019-04-13T09:46:58.926Z,1019.40
2019-04-13T09:47:58.934Z,1019.37
2019-04-13T09:49:51.850Z,1019.42
2019-04-13T09:50:51.846Z,1019.52
2019-04-13T09:52:44.746Z,1019.37
2019-04-13T09:53:44.754Z,1019.37
2019-04-13T09:55:37.657Z,1019.35
2019-04-13T09:56:37.853Z,1019.35
2019-04-13T09:58:35.025Z,1019.26
2019-04-13T09:59:30.568Z,1019.26
2019-04-13T10:01:23.469Z,1019.24
2019-04-13T10:02:26.081Z,1019.27
2019-04-13T10:04:16.383Z,1019.24
2019-04-13T10:05:16.386Z,1019.28
2019-04-13T10:07:09.289Z,1019.24
2019-04-13T10:08:09.296Z,1019.20
2019-04-13T10:10:02.203Z,1019.20
2019-04-13T10:11:02.205Z,1019.20
2019-04-13T10:12:55.107Z,1019.15
2019-04-13T10:13:55.112Z,1019.21
2019-04-13T10:15:48.682Z,1019.18
2019-04-13T10:16:50.561Z,1019.18
2019-04-13T10:18:40.934Z,1019.15
2019-04-13T10:19:40.931Z,1019.10
2019-04-13T10:21:33.827Z,1019.10
2019-04-13T10:22:33.835Z,1019.13
2019-04-13T10:24:26.743Z,1019.14
2019-04-13T10:25:26.744Z,1019.17
2019-04-13T10:27:20.017Z,1019.08
2019-04-13T10:28:19.652Z,1019.05
2019-04-13T10:30:12.558Z,1019.06
2019-04-13T10:31:12.561Z,1019.03
2019-04-13T10:33:05.459Z,1019.00
2019-04-13T10:34:05.466Z,1019.04
2019-04-13T10:35:59.358Z,1019.15
2019-04-13T10:36:59.364Z,1019.03
2019-04-13T10:38:52.265Z,1019.02
2019-04-13T10:39:52.267Z,1019.06
2019-04-13T10:41:45.166Z,1019.07
2019-04-13T10:42:45.178Z,1018.99
2019-04-13T10:44:41.747Z,1019.01
2019-04-13T10:45:38.082Z,1018.94
2019-04-13T10:47:31.036Z,1018.93
2019-04-13T10:48:31.000Z,1018.95
2019-04-13T10:50:23.892Z,1018.93
2019-04-13T10:51:23.897Z,1018.89
2019-04-13T10:53:16.796Z,1018.85
2019-04-13T10:54:16.806Z,1018.87
2019-04-13T10:56:09.712Z,1018.88
2019-04-13T10:57:09.716Z,1018.80
2019-04-13T10:59:02.634Z,1018.83
2019-04-13T11:00:02.629Z,1018.78
2019-04-13T11:01:55.532Z,1018.86
2019-04-13T11:02:55.539Z,1018.80
2019-04-13T11:04:48.445Z,1018.76
2019-04-13T11:05:48.449Z,1018.71
2019-04-13T11:07:41.353Z,1018.77
2019-04-13T11:08:41.360Z,1018.85
2019-04-13T11:10:34.822Z,1018.69
2019-04-13T11:11:34.270Z,1018.75
2019-04-13T11:13:27.168Z,1018.70
2019-04-13T11:14:27.178Z,1018.70
2019-04-13T11:16:20.085Z,1018.66
2019-04-13T11:17:20.092Z,1018.65
2019-04-13T11:19:12.991Z,1018.57
2019-04-13T11:20:14.654Z,1018.54
2019-04-13T11:22:05.969Z,1018.63
2019-04-13T11:23:05.916Z,1018.60
2019-04-13T11:24:58.818Z,1018.51
2019-04-13T11:26:01.008Z,1018.67
2019-04-13T11:27:51.724Z,1018.55
2019-04-13T11:28:51.731Z,1018.49
2019-04-13T11:30:44.641Z,1018.53
2019-04-13T11:31:44.643Z,1018.51
2019-04-13T11:33:37.546Z,1018.51
2019-04-13T11:34:37.554Z,1018.54
2019-04-13T11:36:30.458Z,1018.55
2019-04-13T11:37:32.488Z,1018.53
2019-04-13T11:39:33.423Z,1018.41
2019-04-13T11:40:23.379Z,1018.48
2019-04-13T11:42:16.285Z,1018.46
2019-04-13T11:43:16.289Z,1018.47
2019-04-13T11:45:09.195Z,1018.46
2019-04-13T11:46:09.199Z,1018.46
2019-04-13T11:48:02.100Z,1018.66
2019-04-13T11:49:02.110Z,1018.66
2019-04-13T11:50:59.657Z,1018.75
2019-04-13T11:51:55.017Z,1018.76
2019-04-13T11:53:47.920Z,1018.68
2019-04-13T11:54:47.930Z,1018.75
2019-04-13T11:56:40.836Z,1018.67
2019-04-13T11:57:40.839Z,1018.65
2019-04-13T11:59:33.735Z,1018.68
2019-04-13T12:00:33.746Z,1018.62
2019-04-13T12:02:26.888Z,1018.60
2019-04-13T12:03:26.650Z,1018.62
2019-04-13T12:05:19.557Z,1018.62
2019-04-13T12:06:19.554Z,1018.57
2019-04-13T12:08:12.458Z,1018.54
2019-04-13T12:09:12.463Z,1018.49
2019-04-13T12:11:05.375Z,1018.45
2019-04-13T12:12:05.371Z,1018.46
2019-04-13T12:14:00.313Z,1018.46
2019-04-13T12:14:58.279Z,1018.52
2019-04-13T12:16:51.182Z,1018.55
2019-04-13T12:17:52.085Z,1018.46
2019-04-13T12:19:44.088Z,1018.50
2019-04-13T12:20:44.134Z,1018.44
2019-04-13T12:22:37.001Z,1018.39
2019-04-13T12:23:37.002Z,1018.48
2019-04-13T12:25:29.911Z,1018.49
2019-04-13T12:26:29.916Z,1018.39
2019-04-13T12:28:22.814Z,1018.38
2019-04-13T12:29:22.824Z,1018.32
2019-04-13T12:31:15.732Z,1018.31
2019-04-13T12:32:15.737Z,1018.26
2019-04-13T12:34:08.631Z,1018.27
2019-04-13T12:35:11.501Z,1018.19
2019-04-13T12:37:03.708Z,1018.17
2019-04-13T12:38:03.640Z,1018.20
2019-04-13T12:40:02.728Z,1018.13
2019-04-13T12:40:54.468Z,1018.13
2019-04-13T12:42:47.382Z,1018.18
2019-04-13T12:43:47.389Z,1018.19
2019-04-13T12:45:40.299Z,1018.29
2019-04-13T12:46:40.302Z,1018.37
2019-04-13T12:48:33.696Z,1018.22
2019-04-13T12:49:33.707Z,1018.30
2019-04-13T12:51:26.614Z,1018.30
2019-04-13T12:52:26.617Z,1018.50
2019-04-13T12:54:19.520Z,1018.38
2019-04-13T12:55:20.083Z,1018.44
2019-04-13T12:57:15.834Z,1018.36
2019-04-13T12:58:12.433Z,1018.46
2019-04-13T13:00:08.015Z,1018.55
2019-04-13T13:01:05.338Z,1018.52
2019-04-13T13:02:58.240Z,1018.50
2019-04-13T13:03:58.300Z,1018.46
2019-04-13T13:05:51.172Z,1018.49
2019-04-13T13:06:51.150Z,1018.52
2019-04-13T13:08:44.053Z,1018.42
2019-04-13T13:09:44.057Z,1018.44
2019-04-13T13:11:36.963Z,1018.40
2019-04-13T13:12:36.967Z,1018.42
2019-04-13T13:14:32.523Z,1018.48
2019-04-13T13:15:29.876Z,1018.43
2019-04-13T13:17:22.776Z,1018.44
2019-04-13T13:18:26.127Z,1018.47
2019-04-13T13:20:17.059Z,1018.32
2019-04-13T13:21:15.684Z,1018.27
2019-04-13T13:23:09.958Z,1018.28
2019-04-13T13:24:08.589Z,1018.28
2019-04-13T13:26:01.492Z,1018.37
2019-04-13T13:27:02.763Z,1018.26
2019-04-13T13:28:54.394Z,1018.25
2019-04-13T13:29:54.402Z,1018.20
2019-04-13T13:31:47.304Z,1018.17
2019-04-13T13:32:47.307Z,1018.33
2019-04-13T13:34:40.206Z,1018.21
2019-04-13T13:35:40.214Z,1018.17
2019-04-13T13:37:33.120Z,1018.15
2019-04-13T13:38:33.122Z,1018.16
2019-04-13T13:40:31.034Z,1018.14
2019-04-13T13:41:26.029Z,1018.13
2019-04-13T13:43:18.940Z,1018.12
2019-04-13T13:44:19.911Z,1018.12
2019-04-13T13:46:13.852Z,1018.15
2019-04-13T13:47:11.848Z,1018.08
2019-04-13T13:49:04.746Z,1018.14
2019-04-13T13:50:04.755Z,1018.09
2019-04-13T13:52:01.316Z,1018.06
2019-04-13T13:52:57.670Z,1018.07
2019-04-13T13:54:50.565Z,1018.10
2019-04-13T13:55:50.573Z,1018.15
2019-04-13T13:57:43.481Z,1018.00
2019-04-13T13:58:43.484Z,1017.95
2019-04-13T14:00:36.384Z,1017.92
2019-04-13T14:01:36.397Z,1017.87
2019-04-13T14:03:29.301Z,1017.96
2019-04-13T14:04:29.303Z,1017.88
2019-04-13T14:06:22.208Z,1017.85
2019-04-13T14:07:22.212Z,1017.84
2019-04-13T14:09:15.117Z,1017.87
2019-04-13T14:10:15.134Z,1017.98
2019-04-13T14:12:09.341Z,1018.02
2019-04-13T14:13:08.029Z,1017.97
2019-04-13T14:15:00.927Z,1017.94
2019-04-13T14:16:00.938Z,1017.90
2019-04-13T14:17:55.550Z,1017.85
2019-04-13T14:18:57.197Z,1017.86
2019-04-13T14:20:46.751Z,1017.83
2019-04-13T14:21:46.761Z,1017.81
2019-04-13T14:23:39.658Z,1017.80
2019-04-13T14:24:39.665Z,1017.81
2019-04-13T14:26:32.570Z,1017.76
2019-04-13T14:27:32.574Z,1017.78
2019-04-13T14:29:25.473Z,1017.81
2019-04-13T14:30:25.482Z,1017.80
2019-04-13T14:32:18.385Z,1017.81
2019-04-13T14:33:18.391Z,1017.78
2019-04-13T14:35:11.285Z,1017.80
2019-04-13T14:36:11.293Z,1017.79
2019-04-13T14:38:04.193Z,1017.80
2019-04-13T14:39:04.198Z,1017.76
2019-04-13T14:40:57.103Z,1017.74
2019-04-13T14:41:57.116Z,1017.70
2019-04-13T14:43:52.843Z,1017.64
2019-04-13T14:44:52.410Z,1017.66
2019-04-13T14:46:43.141Z,1017.62
2019-04-13T14:47:43.105Z,1017.61
2019-04-13T14:49:36.003Z,1017.63
2019-04-13T14:50:36.197Z,1017.60
2019-04-13T14:52:29.408Z,1017.58
2019-04-13T14:53:29.415Z,1017.61
2019-04-13T14:55:22.311Z,1017.64
2019-04-13T14:56:22.320Z,1017.63
2019-04-13T14:58:15.223Z,1017.61
2019-04-13T14:59:16.777Z,1017.59
2019-04-13T15:01:08.129Z,1017.59
2019-04-13T15:02:08.243Z,1017.58
2019-04-13T15:04:01.040Z,1017.56
2019-04-13T15:05:01.043Z,1017.53
2019-04-13T15:06:54.874Z,1017.59
2019-04-13T15:07:53.963Z,1017.54
2019-04-13T15:09:46.851Z,1017.53
2019-04-13T15:10:46.858Z,1017.55
2019-04-13T15:12:39.763Z,1017.55
2019-04-13T15:13:40.485Z,1017.49
2019-04-13T15:15:36.539Z,1017.49
2019-04-13T15:16:33.726Z,1017.48
2019-04-13T15:18:26.049Z,1017.52
2019-04-13T15:19:34.493Z,1017.47
2019-04-13T15:21:19.974Z,1017.90
2019-04-13T15:22:19.772Z,1017.72
2019-04-13T15:24:13.496Z,1017.72
2019-04-13T15:25:11.856Z,1017.90
2019-04-13T15:27:07.446Z,1017.81
2019-04-13T15:28:04.321Z,1017.93
2019-04-13T15:29:57.223Z,1017.80
2019-04-13T15:31:01.041Z,1017.79
2019-04-13T15:32:50.128Z,1017.91
2019-04-13T15:33:54.277Z,1017.81
2019-04-13T15:35:46.285Z,1017.89
2019-04-13T15:36:44.212Z,1017.90
2019-04-13T15:38:35.944Z,1017.78
2019-04-13T15:39:40.113Z,1017.81
2019-04-13T15:41:36.235Z,1017.73
2019-04-13T15:42:41.359Z,1017.81
2019-04-13T15:44:22.055Z,1017.83
2019-04-13T15:45:22.509Z,1017.77
2019-04-13T15:47:16.915Z,1017.78
2019-04-13T15:48:14.663Z,1017.71
2019-04-13T15:50:07.570Z,1017.84
2019-04-13T15:51:07.600Z,1017.76
2019-04-13T15:53:01.757Z,1017.76
2019-04-13T15:54:02.604Z,1017.76
2019-04-13T15:55:54.603Z,1017.70
2019-04-13T15:56:53.369Z,1017.73
2019-04-13T15:58:46.699Z,1017.76
2019-04-13T15:59:46.269Z,1017.75
2019-04-13T16:01:41.264Z,1017.76
2019-04-13T16:02:41.127Z,1017.77
2019-04-13T16:04:33.066Z,1017.75
2019-04-13T16:05:33.051Z,1017.77
2019-04-13T16:07:25.784Z,1017.78
2019-04-13T16:08:26.421Z,1017.77
2019-04-13T16:10:18.417Z,1017.77
2019-04-13T16:11:18.733Z,1017.75
2019-04-13T16:13:11.395Z,1017.76
2019-04-13T16:14:11.611Z,1017.73
2019-04-13T16:16:05.162Z,1017.73
2019-04-13T16:17:05.447Z,1017.70
2019-04-13T16:18:58.246Z,1017.67
2019-04-13T16:19:57.204Z,1017.69
2019-04-13T16:21:50.101Z,1017.67
2019-04-13T16:22:50.107Z,1017.66
2019-04-13T16:24:43.921Z,1017.66
2019-04-13T16:25:43.021Z,1017.67
2019-04-13T16:27:35.913Z,1017.63
2019-04-13T16:28:37.210Z,1017.66
2019-04-13T16:30:28.819Z,1017.62
2019-04-13T16:31:29.037Z,1017.69
2019-04-13T16:33:21.738Z,1017.70
2019-04-13T16:34:21.731Z,1017.69
2019-04-13T16:36:16.269Z,1017.66
2019-04-13T16:37:14.628Z,1017.68
2019-04-13T16:39:14.772Z,1017.69
2019-04-13T16:40:08.565Z,1017.69
2019-04-13T16:42:05.769Z,1017.73
2019-04-13T16:43:01.531Z,1017.72
2019-04-13T16:44:53.961Z,1017.69
2019-04-13T16:45:53.359Z,1017.71
2019-04-13T16:47:47.366Z,1017.77
2019-04-13T16:48:46.508Z,1017.76
2019-04-13T16:50:39.172Z,1017.73
2019-04-13T16:51:39.268Z,1017.78
2019-04-13T16:53:32.986Z,1017.75
2019-04-13T16:54:44.082Z,1017.78
2019-04-13T16:56:25.236Z,1017.82
2019-04-13T16:57:24.985Z,1017.80
2019-04-13T16:59:18.380Z,1017.78
2019-04-13T17:00:18.718Z,1017.79
2019-04-13T17:02:11.282Z,1017.79
2019-04-13T17:03:11.864Z,1017.85
2019-04-13T17:05:05.113Z,1017.80
2019-04-13T17:06:04.835Z,1017.80
2019-04-13T17:07:57.098Z,1017.86
2019-04-13T17:08:57.740Z,1017.84
2019-04-13T17:10:50.034Z,1017.82
2019-04-13T17:11:50.550Z,1017.82
2019-04-13T17:13:43.345Z,1017.84
2019-04-13T17:14:43.479Z,1017.81
2019-04-13T17:16:36.258Z,1017.85
2019-04-13T17:17:36.452Z,1017.83
2019-04-13T17:19:28.727Z,1017.84
2019-04-13T17:20:28.723Z,1017.78
2019-04-13T17:22:21.799Z,1018.11
2019-04-13T17:23:21.631Z,1017.98
2019-04-13T17:25:16.245Z,1017.96